Terminal Aerodrome Forecast
Issued by NWS Brownsville, TX

Home | Current Version | Previous Version | Text Only | Print | Product List | Glossary On
Versions: 1 2 3 4 5 6 7 8 9 10 11 12 13 14
000
FTUS44 KBRO 260014 AAA
TAFHRL
TAF AMD
KHRL 260014Z 2600/2624 17012G21KT P6SM SKC
     FM260200 15008KT P6SM SCT025
     FM261500 17013KT P6SM BKN030
     FM261800 16015KT P6SM BKN050
     FM262100 16014G20KT P6SM SCT250=

USA.gov is the U.S. government's official web portal to all federal, state and local government web resources and services.